BAW911U EDDF-EGLL
Flight info
| Callsign | BAW911U |
|---|---|
| Flight time | N/A |
| Altitude | 34000 |
| Route | OBOKA3W/25C OBOKA Z29 TORNU DCT ABNED L980 LOGAN |
| Aircraft | A321/M-SDE3FGHIRWY/LB1 |
Departure
| Time | N/A |
|---|---|
| Airport | Frankfurt Main Airport (EDDF) |
Arrival
| Time | 2026-05-03 21:05 |
|---|---|
| Airport | London Heathrow Airport (EGLL) |
| Time | Latitude | Longitude | Altitude | Speed | Heading |
|---|---|---|---|---|---|
| 2026-05-03 20:15 | 51.46001 | 4.76635 | 33971 ft | 444 kts | 285° |
| 2026-05-03 20:15 | 51.48311 | 4.67471 | 33974 ft | 443 kts | 285° |
| 2026-05-03 20:16 | 51.50599 | 4.58371 | 33956 ft | 442 kts | 285° |
| 2026-05-03 20:16 | 51.52891 | 4.49212 | 33948 ft | 442 kts | 285° |
| 2026-05-03 20:17 | 51.55179 | 4.40045 | 33945 ft | 442 kts | 285° |
| 2026-05-03 20:17 | 51.57458 | 4.30887 | 33944 ft | 441 kts | 285° |
| 2026-05-03 20:18 | 51.59727 | 4.21713 | 33943 ft | 441 kts | 284° |
| 2026-05-03 20:18 | 51.61984 | 4.12542 | 33944 ft | 441 kts | 284° |
| 2026-05-03 20:19 | 51.64236 | 4.03360 | 33940 ft | 441 kts | 284° |
| 2026-05-03 20:19 | 51.66483 | 3.94173 | 33937 ft | 441 kts | 284° |
| 2026-05-03 20:20 | 51.68707 | 3.85046 | 33953 ft | 440 kts | 284° |
| 2026-05-03 20:20 | 51.70932 | 3.75865 | 33932 ft | 439 kts | 284° |
| 2026-05-03 20:21 | 51.73143 | 3.66683 | 33921 ft | 439 kts | 284° |
| 2026-05-03 20:21 | 51.75350 | 3.57495 | 33927 ft | 440 kts | 284° |
| 2026-05-03 20:22 | 51.77551 | 3.48284 | 33936 ft | 439 kts | 283° |
| 2026-05-03 20:22 | 51.79744 | 3.39083 | 33966 ft | 439 kts | 283° |
| 2026-05-03 20:23 | 51.81932 | 3.29854 | 33931 ft | 440 kts | 283° |
| 2026-05-03 20:23 | 51.83022 | 3.25248 | 33452 ft | 436 kts | 290° |
| 2026-05-03 20:23 | 51.83977 | 3.20647 | 34286 ft | 431 kts | 280° |
| 2026-05-03 20:23 | 51.84490 | 3.15895 | 34108 ft | 426 kts | 270° |
| 2026-05-03 20:24 | 51.84521 | 3.11142 | 33932 ft | 421 kts | 262° |
| 2026-05-03 20:24 | 51.83900 | 3.01748 | 33906 ft | 420 kts | 260° |
| 2026-05-03 20:25 | 51.83288 | 2.92346 | 33907 ft | 421 kts | 261° |
| 2026-05-03 20:25 | 51.82682 | 2.82954 | 33903 ft | 420 kts | 261° |
| 2026-05-03 20:26 | 51.82057 | 2.73562 | 33904 ft | 420 kts | 260° |
| 2026-05-03 20:26 | 51.81408 | 2.64183 | 33912 ft | 420 kts | 260° |
| 2026-05-03 20:27 | 51.80759 | 2.54830 | 33642 ft | 413 kts | 260° |
| 2026-05-03 20:27 | 51.80443 | 2.50258 | 33362 ft | 406 kts | 260° |
| 2026-05-03 20:27 | 51.80129 | 2.45746 | 33089 ft | 403 kts | 259° |
| 2026-05-03 20:27 | 51.79814 | 2.41265 | 32843 ft | 401 kts | 259° |
| 2026-05-03 20:28 | 51.79503 | 2.36871 | 32578 ft | 396 kts | 259° |
| 2026-05-03 20:28 | 51.79186 | 2.32415 | 32139 ft | 391 kts | 259° |
| 2026-05-03 20:28 | 51.78877 | 2.28125 | 31705 ft | 386 kts | 258° |
| 2026-05-03 20:28 | 51.78566 | 2.23841 | 31239 ft | 383 kts | 258° |
| 2026-05-03 20:29 | 51.78268 | 2.19581 | 30794 ft | 379 kts | 259° |
| 2026-05-03 20:29 | 51.78008 | 2.15351 | 30348 ft | 376 kts | 259° |
| 2026-05-03 20:29 | 51.77772 | 2.11164 | 29901 ft | 373 kts | 259° |
| 2026-05-03 20:29 | 51.77544 | 2.07012 | 29423 ft | 369 kts | 259° |
| 2026-05-03 20:30 | 51.77317 | 2.02908 | 29000 ft | 364 kts | 259° |
| 2026-05-03 20:30 | 51.77087 | 1.98866 | 28588 ft | 359 kts | 259° |
| 2026-05-03 20:30 | 51.76854 | 1.94885 | 28186 ft | 354 kts | 259° |
| 2026-05-03 20:30 | 51.76619 | 1.90957 | 27786 ft | 349 kts | 259° |
| 2026-05-03 20:31 | 51.76385 | 1.87075 | 27406 ft | 344 kts | 259° |
| 2026-05-03 20:31 | 51.76154 | 1.83259 | 27032 ft | 339 kts | 259° |
| 2026-05-03 20:31 | 51.75922 | 1.79494 | 26669 ft | 334 kts | 259° |
| 2026-05-03 20:31 | 51.75689 | 1.75793 | 26314 ft | 330 kts | 259° |
| 2026-05-03 20:32 | 51.75452 | 1.72112 | 25956 ft | 328 kts | 259° |
| 2026-05-03 20:32 | 51.75214 | 1.68459 | 25602 ft | 326 kts | 259° |
| 2026-05-03 20:32 | 51.74980 | 1.64826 | 25243 ft | 325 kts | 259° |
| 2026-05-03 20:32 | 51.74828 | 1.62428 | 25004 ft | 323 kts | 259° |
| 2026-05-03 20:33 | 51.74520 | 1.57543 | 24401 ft | 338 kts | 260° |
| 2026-05-03 20:33 | 51.74276 | 1.53741 | 23879 ft | 342 kts | 260° |
| 2026-05-03 20:33 | 51.74037 | 1.49964 | 23358 ft | 343 kts | 261° |
| 2026-05-03 20:33 | 51.73873 | 1.47382 | 22965 ft | 342 kts | 261° |
| 2026-05-03 20:34 | 51.73553 | 1.42352 | 22290 ft | 339 kts | 261° |
| 2026-05-03 20:34 | 51.73389 | 1.39803 | 21943 ft | 338 kts | 261° |
| 2026-05-03 20:34 | 51.73067 | 1.34827 | 21271 ft | 335 kts | 261° |
| 2026-05-03 20:34 | 51.72824 | 1.31102 | 20777 ft | 334 kts | 261° |
| 2026-05-03 20:35 | 51.72579 | 1.27393 | 20276 ft | 332 kts | 261° |
| 2026-05-03 20:35 | 51.72415 | 1.24942 | 19946 ft | 331 kts | 261° |
| 2026-05-03 20:35 | 51.72085 | 1.20015 | 19289 ft | 330 kts | 261° |
| 2026-05-03 20:35 | 51.71838 | 1.16344 | 18799 ft | 329 kts | 261° |
| 2026-05-03 20:36 | 51.71675 | 1.13918 | 18468 ft | 328 kts | 261° |
| 2026-05-03 20:36 | 51.71427 | 1.10260 | 17948 ft | 328 kts | 261° |
| 2026-05-03 20:36 | 51.71179 | 1.06619 | 17424 ft | 326 kts | 261° |
| 2026-05-03 20:36 | 51.70930 | 1.03007 | 16951 ft | 323 kts | 261° |
| 2026-05-03 20:37 | 51.70682 | 0.99416 | 16467 ft | 321 kts | 261° |
| 2026-05-03 20:37 | 51.70438 | 0.95853 | 16010 ft | 318 kts | 261° |
| 2026-05-03 20:37 | 51.70200 | 0.92359 | 15852 ft | 312 kts | 261° |
| 2026-05-03 20:37 | 51.69959 | 0.88874 | 15867 ft | 313 kts | 261° |
| 2026-05-03 20:38 | 51.69715 | 0.85381 | 15869 ft | 314 kts | 261° |
| 2026-05-03 20:38 | 51.69470 | 0.81882 | 15868 ft | 314 kts | 261° |
| 2026-05-03 20:38 | 51.69225 | 0.78391 | 15868 ft | 314 kts | 261° |
| 2026-05-03 20:38 | 51.68980 | 0.74896 | 15868 ft | 314 kts | 261° |
| 2026-05-03 20:39 | 51.68734 | 0.71419 | 15862 ft | 307 kts | 261° |
| 2026-05-03 20:39 | 51.68494 | 0.68029 | 15864 ft | 303 kts | 261° |
| 2026-05-03 20:39 | 51.68254 | 0.64664 | 15867 ft | 303 kts | 261° |
| 2026-05-03 20:39 | 51.68011 | 0.61286 | 15863 ft | 302 kts | 261° |
| 2026-05-03 20:40 | 51.67768 | 0.57923 | 15867 ft | 302 kts | 261° |
| 2026-05-03 20:40 | 51.67524 | 0.54558 | 15868 ft | 302 kts | 261° |
| 2026-05-03 20:40 | 51.67276 | 0.51174 | 15311 ft | 308 kts | 261° |
| 2026-05-03 20:40 | 51.67021 | 0.47710 | 14470 ft | 319 kts | 261° |
| 2026-05-03 20:41 | 51.66771 | 0.44266 | 14115 ft | 300 kts | 261° |
| 2026-05-03 20:41 | 51.66533 | 0.40984 | 13470 ft | 291 kts | 261° |
| 2026-05-03 20:41 | 51.66298 | 0.37768 | 12686 ft | 287 kts | 261° |
| 2026-05-03 20:41 | 51.66064 | 0.34598 | 11914 ft | 284 kts | 261° |
| 2026-05-03 20:42 | 51.65829 | 0.31448 | 11121 ft | 282 kts | 261° |
| 2026-05-03 20:42 | 51.65597 | 0.28328 | 10374 ft | 280 kts | 262° |
| 2026-05-03 20:42 | 51.65364 | 0.25234 | 9634 ft | 277 kts | 262° |
| 2026-05-03 20:42 | 51.65132 | 0.22167 | 9028 ft | 272 kts | 262° |
| 2026-05-03 20:43 | 51.64900 | 0.19126 | 8878 ft | 277 kts | 262° |
| 2026-05-03 20:43 | 51.64666 | 0.16059 | 8807 ft | 275 kts | 263° |
| 2026-05-03 20:43 | 51.64676 | 0.12996 | 8411 ft | 274 kts | 273° |
| 2026-05-03 20:43 | 51.64752 | 0.09921 | 7982 ft | 273 kts | 270° |
| 2026-05-03 20:44 | 51.64818 | 0.06869 | 7600 ft | 272 kts | 271° |
| 2026-05-03 20:44 | 51.64894 | 0.03828 | 7210 ft | 271 kts | 271° |
| 2026-05-03 20:44 | 51.64973 | 0.00822 | 6865 ft | 268 kts | 271° |
| 2026-05-03 20:44 | 51.65039 | -0.02183 | 6503 ft | 268 kts | 271° |
| 2026-05-03 20:45 | 51.64954 | -0.05155 | 6159 ft | 264 kts | 254° |
| 2026-05-03 20:45 | 51.64088 | -0.07666 | 5989 ft | 253 kts | 225° |
| 2026-05-03 20:45 | 51.62624 | -0.09067 | 5861 ft | 242 kts | 195° |
| 2026-05-03 20:45 | 51.60986 | -0.09056 | 5617 ft | 237 kts | 165° |
| 2026-05-03 20:46 | 51.59492 | -0.07944 | 5211 ft | 238 kts | 153° |
| 2026-05-03 20:46 | 51.57983 | -0.06941 | 4964 ft | 233 kts | 173° |
| 2026-05-03 20:46 | 51.56354 | -0.06947 | 4963 ft | 239 kts | 188° |
| 2026-05-03 20:46 | 51.54679 | -0.07382 | 4970 ft | 243 kts | 191° |
| 2026-05-03 20:47 | 51.53023 | -0.07856 | 4874 ft | 240 kts | 192° |
| 2026-05-03 20:47 | 51.51381 | -0.08331 | 4477 ft | 241 kts | 195° |
| 2026-05-03 20:47 | 51.49874 | -0.09417 | 4139 ft | 233 kts | 216° |
| 2026-05-03 20:47 | 51.48758 | -0.11136 | 3945 ft | 213 kts | 234° |
| 2026-05-03 20:48 | 51.48080 | -0.13163 | 3750 ft | 201 kts | 250° |
| 2026-05-03 20:48 | 51.47619 | -0.15205 | 3545 ft | 190 kts | 238° |
| 2026-05-03 20:48 | 51.46764 | -0.16691 | 3420 ft | 173 kts | 223° |
| 2026-05-03 20:48 | 51.45888 | -0.17913 | 3232 ft | 163 kts | 221° |
| 2026-05-03 20:49 | 51.45297 | -0.19404 | 2884 ft | 161 kts | 261° |
| 2026-05-03 20:49 | 51.45561 | -0.21088 | 2565 ft | 161 kts | 308° |
| 2026-05-03 20:49 | 51.46473 | -0.22110 | 2469 ft | 165 kts | 339° |
| 2026-05-03 20:49 | 51.47564 | -0.22674 | 2458 ft | 160 kts | 326° |
| 2026-05-03 20:50 | 51.48063 | -0.24100 | 2387 ft | 150 kts | 266° |
| 2026-05-03 20:50 | 51.47804 | -0.25690 | 2242 ft | 146 kts | 256° |
| 2026-05-03 20:50 | 51.47808 | -0.27318 | 2072 ft | 148 kts | 269° |
| 2026-05-03 20:50 | 51.47803 | -0.28962 | 1888 ft | 146 kts | 268° |
| 2026-05-03 20:51 | 51.47796 | -0.30553 | 1693 ft | 143 kts | 268° |
| 2026-05-03 20:51 | 51.47792 | -0.32192 | 1490 ft | 147 kts | 268° |
| 2026-05-03 20:51 | 51.47788 | -0.33805 | 1295 ft | 147 kts | 268° |
| 2026-05-03 20:51 | 51.47784 | -0.35470 | 1097 ft | 147 kts | 270° |
| 2026-05-03 20:52 | 51.47781 | -0.37073 | 898 ft | 146 kts | 268° |
| 2026-05-03 20:52 | 51.47777 | -0.38699 | 708 ft | 147 kts | 268° |
| 2026-05-03 20:52 | 51.47778 | -0.40331 | 517 ft | 145 kts | 269° |
| 2026-05-03 20:52 | 51.47770 | -0.41952 | 330 ft | 145 kts | 270° |
| 2026-05-03 20:53 | 51.47757 | -0.43648 | 838 ft | 154 kts | 268° |
| 2026-05-03 20:53 | 51.47741 | -0.45408 | 1568 ft | 159 kts | 268° |
| 2026-05-03 20:53 | 51.47774 | -0.47300 | 1776 ft | 183 kts | 276° |
| 2026-05-03 20:53 | 51.48410 | -0.49183 | 1986 ft | 208 kts | 312° |
| 2026-05-03 20:54 | 51.49563 | -0.50783 | 2174 ft | 229 kts | 321° |
| 2026-05-03 20:54 | 51.52594 | -0.52229 | 3474 ft | 242 kts | 13° |
| 2026-05-03 20:54 | 51.54104 | -0.50984 | 3878 ft | 248 kts | 42° |
| 2026-05-03 20:55 | 51.55050 | -0.48709 | 3937 ft | 246 kts | 73° |
| 2026-05-03 20:55 | 51.55283 | -0.45944 | 3959 ft | 261 kts | 89° |
| 2026-05-03 20:55 | 51.55302 | -0.42996 | 3954 ft | 271 kts | 91° |
| 2026-05-03 20:55 | 51.55278 | -0.38920 | 3952 ft | 272 kts | 91° |
| 2026-05-03 20:56 | 51.55230 | -0.32852 | 3511 ft | 270 kts | 91° |
| 2026-05-03 20:56 | 51.55191 | -0.27853 | 2955 ft | 265 kts | 91° |
| 2026-05-03 20:56 | 51.55166 | -0.24895 | 2953 ft | 266 kts | 91° |
| 2026-05-03 20:56 | 51.55139 | -0.22006 | 2951 ft | 251 kts | 91° |
| 2026-05-03 20:57 | 51.55115 | -0.19329 | 2966 ft | 236 kts | 91° |
| 2026-05-03 20:57 | 51.55087 | -0.16728 | 2957 ft | 229 kts | 91° |
| 2026-05-03 20:57 | 51.55061 | -0.14173 | 2959 ft | 229 kts | 91° |
| 2026-05-03 20:57 | 51.55037 | -0.11626 | 2975 ft | 228 kts | 91° |
| 2026-05-03 20:58 | 51.54912 | -0.09096 | 2973 ft | 226 kts | 107° |
| 2026-05-03 20:58 | 51.54083 | -0.07008 | 2978 ft | 223 kts | 141° |
| 2026-05-03 20:58 | 51.52701 | -0.05995 | 2982 ft | 220 kts | 171° |
| 2026-05-03 20:58 | 51.51191 | -0.05955 | 2968 ft | 217 kts | 193° |
| 2026-05-03 20:59 | 51.49812 | -0.06762 | 2963 ft | 203 kts | 212° |
| 2026-05-03 20:59 | 51.48779 | -0.08155 | 2971 ft | 188 kts | 231° |
| 2026-05-03 20:59 | 51.48108 | -0.09917 | 2960 ft | 184 kts | 248° |
| 2026-05-03 20:59 | 51.47824 | -0.11806 | 2969 ft | 168 kts | 265° |
| 2026-05-03 21:00 | 51.47808 | -0.13639 | 2964 ft | 163 kts | 269° |
| 2026-05-03 21:00 | 51.47808 | -0.14838 | 2965 ft | 161 kts | 270° |
| 2026-05-03 21:00 | 51.47807 | -0.17233 | 2959 ft | 161 kts | 269° |
| 2026-05-03 21:00 | 51.47806 | -0.19048 | 2942 ft | 164 kts | 269° |
| 2026-05-03 21:01 | 51.47804 | -0.20870 | 2807 ft | 164 kts | 270° |
| 2026-05-03 21:01 | 51.47803 | -0.22684 | 2616 ft | 162 kts | 270° |
| 2026-05-03 21:01 | 51.47801 | -0.24473 | 2427 ft | 160 kts | 269° |
| 2026-05-03 21:01 | 51.47799 | -0.26252 | 2226 ft | 159 kts | 269° |
| 2026-05-03 21:02 | 51.47797 | -0.28019 | 2016 ft | 159 kts | 269° |
| 2026-05-03 21:02 | 51.47794 | -0.29785 | 1801 ft | 159 kts | 269° |
| 2026-05-03 21:02 | 51.47791 | -0.31552 | 1591 ft | 158 kts | 269° |
| 2026-05-03 21:02 | 51.47788 | -0.33317 | 1372 ft | 159 kts | 269° |
| 2026-05-03 21:03 | 51.47785 | -0.35057 | 1143 ft | 152 kts | 268° |
| 2026-05-03 21:03 | 51.47782 | -0.36731 | 943 ft | 149 kts | 268° |
| 2026-05-03 21:03 | 51.47778 | -0.38393 | 738 ft | 149 kts | 269° |
| 2026-05-03 21:03 | 51.47775 | -0.40052 | 540 ft | 149 kts | 270° |
| 2026-05-03 21:04 | 51.47778 | -0.41709 | 354 ft | 149 kts | 270° |
| 2026-05-03 21:04 | 51.47767 | -0.43363 | 141 ft | 148 kts | 270° |
| 2026-05-03 21:04 | 51.47764 | -0.44920 | 89 ft | 120 kts | 270° |
| 2026-05-03 21:04 | 51.47761 | -0.45981 | 85 ft | 70 kts | 270° |
| 2026-05-03 21:05 | 51.47748 | -0.46502 | 89 ft | 31 kts | 259° |
| 2026-05-03 21:05 | 51.47693 | -0.46746 | 90 ft | 18 kts | 246° |
| 2026-05-03 21:05 | 51.47609 | -0.46889 | 90 ft | 18 kts | 206° |
| 2026-05-03 21:05 | 51.47583 | -0.47039 | 90 ft | 15 kts | 269° |
| 2026-05-03 21:06 | 51.47582 | -0.47214 | 90 ft | 17 kts | 269° |
| 2026-05-03 21:06 | 51.47582 | -0.47410 | 90 ft | 18 kts | 270° |
| 2026-05-03 21:06 | 51.47581 | -0.47616 | 90 ft | 19 kts | 270° |
| 2026-05-03 21:06 | 51.47580 | -0.47831 | 90 ft | 20 kts | 269° |
| 2026-05-03 21:07 | 51.47580 | -0.48052 | 89 ft | 20 kts | 270° |
| 2026-05-03 21:07 | 51.47578 | -0.48285 | 88 ft | 21 kts | 268° |
| 2026-05-03 21:07 | 51.47553 | -0.48467 | 89 ft | 15 kts | 211° |
| 2026-05-03 21:07 | 51.47448 | -0.48476 | 86 ft | 16 kts | 180° |
| 2026-05-03 21:08 | 51.47333 | -0.48474 | 86 ft | 19 kts | 180° |
| 2026-05-03 21:08 | 51.47190 | -0.48473 | 86 ft | 20 kts | 181° |
| 2026-05-03 21:08 | 51.47097 | -0.48475 | 86 ft | 5 kts | 192° |
| 2026-05-03 21:08 | 51.47088 | -0.48512 | 87 ft | 3 kts | 266° |
| 2026-05-03 21:09 | 51.47088 | -0.48525 | 87 ft | 0 kts | 267° |
| 2026-05-03 21:09 | 51.47088 | -0.48541 | 86 ft | 3 kts | 269° |
| 2026-05-03 21:09 | 51.47088 | -0.48552 | 86 ft | 0 kts | 270° |
| 2026-05-03 21:09 | 51.47088 | -0.48564 | 86 ft | 2 kts | 269° |
| 2026-05-03 21:10 | 51.47087 | -0.48572 | 86 ft | 0 kts | 269° |
| 2026-05-03 21:10 | 51.47087 | -0.48578 | 86 ft | 0 kts | 269° |